createdAt,value
2023-05-21T00:01:08.039Z,14.01
2023-05-21T00:03:36.560Z,14.04
2023-05-21T00:06:04.222Z,14.01
2023-05-21T00:08:31.297Z,13.96
2023-05-21T00:10:58.099Z,13.97
2023-05-21T00:13:24.906Z,13.93
2023-05-21T00:15:52.021Z,13.93
2023-05-21T00:18:18.941Z,13.87
2023-05-21T00:20:45.963Z,13.85
2023-05-21T00:23:12.937Z,13.76
2023-05-21T00:25:39.757Z,13.75
2023-05-21T00:28:06.795Z,13.77
2023-05-21T00:30:33.563Z,13.76
2023-05-21T00:33:03.080Z,13.77
2023-05-21T00:35:30.128Z,13.72
2023-05-21T00:37:57.486Z,13.79
2023-05-21T00:40:24.385Z,13.78
2023-05-21T00:42:51.230Z,13.79
2023-05-21T00:45:18.028Z,13.74
2023-05-21T00:47:45.967Z,13.65
2023-05-21T00:50:15.188Z,13.66
2023-05-21T00:52:44.188Z,13.65
2023-05-21T00:55:11.209Z,13.60
2023-05-21T00:57:39.791Z,13.58
2023-05-21T01:00:09.141Z,13.61
2023-05-21T01:02:37.696Z,13.62
2023-05-21T01:05:06.212Z,13.61
2023-05-21T01:07:35.124Z,13.58
2023-05-21T01:10:07.877Z,13.47
2023-05-21T01:12:35.750Z,13.54
2023-05-21T01:15:04.301Z,13.54
2023-05-21T01:17:32.189Z,13.56
2023-05-21T01:19:59.640Z,13.59
2023-05-21T01:22:28.671Z,13.53
2023-05-21T01:24:55.776Z,13.51
2023-05-21T01:27:23.065Z,13.55
2023-05-21T01:29:50.480Z,13.53
2023-05-21T01:32:27.957Z,13.55
2023-05-21T01:35:21.157Z,13.51
2023-05-21T01:38:14.050Z,13.47
2023-05-21T01:40:54.448Z,13.47
2023-05-21T01:43:22.927Z,13.49
2023-05-21T01:45:53.696Z,13.50
2023-05-21T01:48:21.154Z,13.47
2023-05-21T01:50:48.282Z,13.50
2023-05-21T01:53:15.941Z,13.51
2023-05-21T01:55:42.854Z,13.49
2023-05-21T01:58:10.160Z,13.47
2023-05-21T02:00:37.592Z,13.43
2023-05-21T02:03:04.494Z,13.50
2023-05-21T02:05:31.509Z,13.44
2023-05-21T02:08:00.273Z,13.41
2023-05-21T02:10:27.308Z,13.40
2023-05-21T02:12:54.225Z,13.41
2023-05-21T02:15:21.317Z,13.35
2023-05-21T02:17:48.118Z,13.37
2023-05-21T02:20:15.033Z,13.39
2023-05-21T02:22:44.153Z,13.34
2023-05-21T02:25:12.202Z,13.30
2023-05-21T02:27:40.902Z,13.29
2023-05-21T02:30:09.652Z,13.38
2023-05-21T02:32:36.824Z,13.37
2023-05-21T02:35:04.618Z,13.38
2023-05-21T02:37:35.368Z,13.37
2023-05-21T02:40:04.555Z,13.26
2023-05-21T02:42:31.787Z,13.32
2023-05-21T02:44:58.740Z,13.24
2023-05-21T02:47:25.906Z,13.24
2023-05-21T02:49:54.919Z,13.18
2023-05-21T02:52:24.277Z,13.31
2023-05-21T02:54:52.254Z,13.29
2023-05-21T02:57:19.455Z,13.27
2023-05-21T02:59:46.342Z,13.27
2023-05-21T03:02:13.248Z,13.28
2023-05-21T03:04:46.662Z,13.26
2023-05-21T03:07:14.960Z,13.08
2023-05-21T03:09:42.605Z,13.08
2023-05-21T03:12:09.821Z,13.09
2023-05-21T03:14:36.699Z,13.02
2023-05-21T03:17:06.617Z,12.97
2023-05-21T03:19:37.544Z,13.11
2023-05-21T03:22:05.278Z,13.00
2023-05-21T03:24:35.443Z,12.96
2023-05-21T03:27:03.196Z,12.97
2023-05-21T03:29:29.935Z,12.89
2023-05-21T03:31:57.358Z,12.93
2023-05-21T03:34:24.512Z,12.85
2023-05-21T03:36:52.400Z,12.77
2023-05-21T03:39:21.113Z,12.78
2023-05-21T03:41:48.658Z,12.90
2023-05-21T03:44:32.619Z,12.84
2023-05-21T03:47:22.894Z,12.85
2023-05-21T03:49:50.800Z,12.81
2023-05-21T03:52:17.502Z,12.81
2023-05-21T03:54:44.306Z,12.90
2023-05-21T03:57:11.298Z,12.88
2023-05-21T03:59:38.278Z,12.85
2023-05-21T04:02:05.459Z,13.01
2023-05-21T04:04:34.074Z,13.02
2023-05-21T04:07:01.180Z,12.93
2023-05-21T04:09:28.198Z,12.92
2023-05-21T04:11:55.277Z,12.89
2023-05-21T04:14:23.611Z,12.96
2023-05-21T04:16:52.115Z,12.90
2023-05-21T04:19:20.537Z,13.04
2023-05-21T04:21:47.781Z,13.07
2023-05-21T04:24:14.923Z,13.06
2023-05-21T04:27:01.756Z,13.02
2023-05-21T04:29:31.518Z,12.92
2023-05-21T04:31:58.279Z,12.89
2023-05-21T04:34:25.278Z,12.98
2023-05-21T04:36:52.244Z,12.91
2023-05-21T04:39:19.080Z,12.94
2023-05-21T04:41:45.816Z,13.00
2023-05-21T04:44:15.304Z,13.08
2023-05-21T04:46:46.291Z,12.97
2023-05-21T04:49:13.249Z,12.88
2023-05-21T04:51:40.200Z,12.95
2023-05-21T04:54:07.092Z,13.10
2023-05-21T04:56:34.773Z,13.05
2023-05-21T04:59:05.157Z,13.10
2023-05-21T05:01:35.501Z,13.14
2023-05-21T05:04:02.416Z,13.19
2023-05-21T05:06:29.666Z,13.23
2023-05-21T05:08:56.511Z,13.33
2023-05-21T05:11:23.576Z,13.29
2023-05-21T05:13:52.885Z,13.32
2023-05-21T05:16:25.494Z,13.28
2023-05-21T05:18:53.339Z,13.33
2023-05-21T05:21:22.985Z,13.38
2023-05-21T05:23:50.338Z,13.45
2023-05-21T05:26:17.643Z,13.47
2023-05-21T05:28:46.076Z,13.53
2023-05-21T05:31:12.980Z,13.50
2023-05-21T05:33:41.207Z,13.62
2023-05-21T05:36:08.158Z,13.65
2023-05-21T05:38:36.273Z,13.62
2023-05-21T05:41:03.323Z,13.71
2023-05-21T05:43:30.122Z,13.73
2023-05-21T05:45:58.662Z,13.76
2023-05-21T05:48:25.494Z,13.81
2023-05-21T05:50:54.810Z,13.91
2023-05-21T05:53:24.089Z,14.05
2023-05-21T05:55:50.876Z,14.11
2023-05-21T05:58:17.807Z,14.18
2023-05-21T06:00:55.764Z,14.32
2023-05-21T06:03:23.964Z,14.34
2023-05-21T06:05:53.002Z,14.34
2023-05-21T06:08:19.833Z,14.46
2023-05-21T06:10:46.538Z,14.71
2023-05-21T06:13:14.768Z,14.80
2023-05-21T06:15:43.540Z,14.79
2023-05-21T06:18:11.601Z,15.08
2023-05-21T06:20:38.531Z,15.18
2023-05-21T06:23:06.662Z,15.34
2023-05-21T06:25:33.438Z,15.43
2023-05-21T06:28:00.347Z,15.49
2023-05-21T06:30:28.997Z,15.55
2023-05-21T06:32:55.846Z,15.67
2023-05-21T06:35:22.717Z,15.70
2023-05-21T06:37:49.522Z,15.90
2023-05-21T06:40:16.633Z,15.92
2023-05-21T06:42:43.699Z,16.30
2023-05-21T06:45:36.233Z,16.39
2023-05-21T06:48:16.092Z,16.46
2023-05-21T06:50:44.032Z,16.52
2023-05-21T06:53:10.876Z,16.52
2023-05-21T06:55:37.930Z,16.58
2023-05-21T06:58:43.657Z,16.57
2023-05-21T07:01:11.897Z,16.60
2023-05-21T07:03:38.732Z,16.64
2023-05-21T07:06:05.702Z,16.81
2023-05-21T07:08:32.622Z,16.95
2023-05-21T07:10:59.841Z,16.82
2023-05-21T07:13:26.690Z,16.88
2023-05-21T07:15:53.511Z,16.95
2023-05-21T07:18:20.690Z,17.06
2023-05-21T07:20:47.440Z,17.10
2023-05-21T07:23:16.368Z,17.04
2023-05-21T07:25:44.222Z,17.30
2023-05-21T07:28:13.097Z,17.20
2023-05-21T07:30:40.132Z,17.22
2023-05-21T07:33:12.866Z,17.38
2023-05-21T07:35:40.036Z,17.51
2023-05-21T07:38:07.968Z,17.57
2023-05-21T07:40:34.908Z,17.56
2023-05-21T07:43:02.926Z,17.71
2023-05-21T07:45:30.959Z,17.65
2023-05-21T07:47:58.048Z,17.90
2023-05-21T07:50:25.981Z,17.90
2023-05-21T07:52:53.124Z,17.85
2023-05-21T07:55:20.792Z,18.06
2023-05-21T07:57:48.158Z,18.10
2023-05-21T08:00:17.406Z,18.33
2023-05-21T08:02:50.129Z,18.45
2023-05-21T08:05:16.966Z,18.60
2023-05-21T08:07:44.473Z,18.86
2023-05-21T08:10:11.524Z,18.77
2023-05-21T08:12:38.362Z,18.81
2023-05-21T08:15:07.031Z,18.93
2023-05-21T08:17:37.837Z,19.20
2023-05-21T08:20:04.993Z,19.77
2023-05-21T08:22:32.551Z,19.80
2023-05-21T08:24:59.929Z,20.01
2023-05-21T08:27:26.712Z,20.39
2023-05-21T08:29:53.433Z,20.12
2023-05-21T08:32:20.857Z,20.50
2023-05-21T08:34:48.008Z,20.46
2023-05-21T08:37:33.906Z,20.67
2023-05-21T08:40:13.483Z,20.77
2023-05-21T08:42:48.343Z,21.25
2023-05-21T08:45:23.836Z,22.07
2023-05-21T08:47:58.705Z,20.47
2023-05-21T08:50:28.989Z,21.92
2023-05-21T08:53:04.001Z,22.29
2023-05-21T08:55:39.094Z,22.59
2023-05-21T08:58:06.346Z,23.01
2023-05-21T09:00:33.085Z,22.47
2023-05-21T09:03:02.984Z,23.32
2023-05-21T09:05:31.387Z,23.32
2023-05-21T09:08:13.923Z,23.79
2023-05-21T09:11:03.657Z,22.86
2023-05-21T09:13:39.084Z,21.79
2023-05-21T09:16:12.477Z,23.35
2023-05-21T09:18:39.496Z,25.04
2023-05-21T09:21:30.061Z,24.29
2023-05-21T09:24:00.924Z,25.43
2023-05-21T09:26:28.078Z,25.99
2023-05-21T09:29:00.331Z,23.80
2023-05-21T09:31:27.643Z,25.58
2023-05-21T09:33:55.842Z,26.25
2023-05-21T09:36:25.311Z,26.42
2023-05-21T09:38:52.493Z,26.69
2023-05-21T09:41:22.235Z,27.01
2023-05-21T09:43:49.733Z,27.26
2023-05-21T09:46:22.197Z,26.92
2023-05-21T09:48:49.059Z,27.21
2023-05-21T09:51:20.557Z,27.42
2023-05-21T09:53:54.844Z,27.47
2023-05-21T09:56:26.668Z,25.93
2023-05-21T09:59:04.665Z,27.44
2023-05-21T10:01:36.954Z,26.12
2023-05-21T10:04:08.113Z,26.74
2023-05-21T10:06:38.517Z,26.42
2023-05-21T10:09:10.765Z,27.04
2023-05-21T10:11:37.980Z,27.85
2023-05-21T10:14:13.768Z,27.32
2023-05-21T10:16:41.429Z,27.74
2023-05-21T10:19:11.258Z,26.28
2023-05-21T10:21:40.085Z,25.95
2023-05-21T10:24:11.031Z,26.11
2023-05-21T10:26:38.764Z,26.66
2023-05-21T10:29:05.640Z,27.30
2023-05-21T10:31:33.458Z,27.60
2023-05-21T10:34:00.998Z,27.86
2023-05-21T10:36:31.193Z,28.09
2023-05-21T10:39:00.318Z,27.43
2023-05-21T10:41:30.492Z,28.75
2023-05-21T10:44:04.984Z,28.96
2023-05-21T10:46:59.511Z,28.37
2023-05-21T10:50:08.292Z,28.19
2023-05-21T10:52:57.355Z,28.57
2023-05-21T10:55:47.333Z,28.86
2023-05-21T10:58:27.394Z,28.86
2023-05-21T11:00:56.124Z,29.09
2023-05-21T11:03:23.249Z,28.57
2023-05-21T11:05:55.614Z,29.26
2023-05-21T11:08:36.065Z,29.34
2023-05-21T11:11:03.956Z,28.59
2023-05-21T11:13:49.352Z,28.70
2023-05-21T11:16:17.348Z,29.50
2023-05-21T11:18:47.296Z,27.24
2023-05-21T11:21:18.690Z,26.92
2023-05-21T11:23:51.687Z,26.22
2023-05-21T11:26:25.318Z,26.94
2023-05-21T11:29:07.028Z,28.14
2023-05-21T11:31:38.732Z,25.60
2023-05-21T11:34:28.342Z,26.29
2023-05-21T11:37:33.354Z,24.51
2023-05-21T11:40:20.054Z,25.90
2023-05-21T11:42:52.990Z,25.33
2023-05-21T11:45:21.534Z,26.08
2023-05-21T11:47:49.983Z,24.87
2023-05-21T11:50:17.930Z,25.46
2023-05-21T11:52:45.667Z,25.37
2023-05-21T11:55:13.602Z,26.62
2023-05-21T11:57:43.121Z,26.06
2023-05-21T12:00:15.654Z,25.93
2023-05-21T12:02:48.704Z,25.39
2023-05-21T12:05:15.896Z,25.96
2023-05-21T12:07:43.068Z,25.90
2023-05-21T12:10:10.552Z,25.32
2023-05-21T12:12:50.547Z,24.85
2023-05-21T12:15:20.813Z,25.61
2023-05-21T12:17:50.225Z,26.22
2023-05-21T12:20:17.341Z,26.28
2023-05-21T12:22:45.272Z,26.72
2023-05-21T12:25:12.455Z,27.23
2023-05-21T12:27:39.890Z,27.25
2023-05-21T12:30:07.333Z,25.28
2023-05-21T12:32:34.244Z,25.28
2023-05-21T12:35:01.314Z,25.72
2023-05-21T12:37:35.733Z,25.87
2023-05-21T12:40:11.996Z,26.04
2023-05-21T12:42:40.345Z,26.48
2023-05-21T12:45:09.222Z,26.25
2023-05-21T12:47:36.584Z,25.64
2023-05-21T12:50:12.449Z,25.73
2023-05-21T12:52:40.629Z,26.95
2023-05-21T12:55:09.607Z,26.38
2023-05-21T12:57:39.216Z,27.75
2023-05-21T13:00:07.974Z,27.59
2023-05-21T13:02:39.387Z,26.05
2023-05-21T13:05:08.490Z,27.14
2023-05-21T13:07:37.024Z,25.23
2023-05-21T13:10:04.738Z,26.11
2023-05-21T13:12:33.138Z,26.52
2023-05-21T13:15:01.586Z,26.77
2023-05-21T13:17:29.235Z,25.99
2023-05-21T13:20:13.398Z,27.58
2023-05-21T13:22:47.102Z,26.45
2023-05-21T13:25:16.962Z,27.21
2023-05-21T13:27:44.259Z,26.09
2023-05-21T13:30:14.453Z,25.94
2023-05-21T13:32:42.458Z,26.77
2023-05-21T13:35:10.274Z,25.96
2023-05-21T13:37:37.441Z,27.63
2023-05-21T13:40:11.263Z,26.75
2023-05-21T13:42:41.658Z,27.34
2023-05-21T13:45:11.150Z,26.59
2023-05-21T13:47:40.204Z,26.79
2023-05-21T13:50:08.623Z,26.89
2023-05-21T13:52:36.011Z,27.71
2023-05-21T13:55:02.921Z,26.28
2023-05-21T13:57:31.150Z,27.23
2023-05-21T13:59:59.385Z,26.31
2023-05-21T14:02:26.610Z,26.66
2023-05-21T14:04:54.071Z,26.88
2023-05-21T14:07:21.629Z,26.57
2023-05-21T14:09:48.667Z,26.87
2023-05-21T14:12:15.880Z,26.59
2023-05-21T14:14:42.703Z,27.00
2023-05-21T14:17:09.467Z,26.87
2023-05-21T14:19:36.367Z,26.78
2023-05-21T14:22:03.130Z,27.07
2023-05-21T14:24:29.943Z,27.35
2023-05-21T14:26:56.714Z,27.87
2023-05-21T14:29:23.499Z,28.04
2023-05-21T14:31:50.501Z,28.90
2023-05-21T14:34:17.501Z,27.09
2023-05-21T14:36:44.227Z,27.55
2023-05-21T14:39:10.986Z,27.64
2023-05-21T14:41:39.910Z,27.33
2023-05-21T14:44:07.003Z,26.61
2023-05-21T14:46:34.039Z,26.40
2023-05-21T14:49:01.162Z,26.03
2023-05-21T14:51:28.155Z,25.34
2023-05-21T14:53:55.914Z,25.93
2023-05-21T14:56:25.295Z,26.04
2023-05-21T14:58:52.427Z,26.73
2023-05-21T15:01:19.191Z,25.67
2023-05-21T15:03:46.294Z,25.65
2023-05-21T15:06:13.647Z,25.72
2023-05-21T15:08:40.440Z,25.35
2023-05-21T15:11:10.124Z,26.29
2023-05-21T15:13:37.137Z,26.43
2023-05-21T15:16:04.359Z,26.33
2023-05-21T15:18:31.264Z,25.58
2023-05-21T15:20:58.734Z,25.86
2023-05-21T15:23:25.766Z,26.65
2023-05-21T15:25:52.581Z,26.32
2023-05-21T15:28:19.997Z,26.02
2023-05-21T15:30:46.810Z,25.91
2023-05-21T15:33:13.989Z,26.04
2023-05-21T15:35:41.593Z,26.23
2023-05-21T15:38:08.575Z,26.29
2023-05-21T15:40:35.559Z,26.09
2023-05-21T15:43:02.380Z,25.87
2023-05-21T15:45:29.087Z,25.66
2023-05-21T15:47:56.166Z,26.03
2023-05-21T15:50:23.041Z,25.95
2023-05-21T15:52:51.666Z,25.57
2023-05-21T15:55:20.665Z,26.40
2023-05-21T15:57:47.430Z,26.00
2023-05-21T16:00:14.633Z,26.22
2023-05-21T16:02:42.247Z,25.96
2023-05-21T16:05:09.494Z,25.88
2023-05-21T16:07:37.924Z,25.71
2023-05-21T16:10:09.850Z,26.06
2023-05-21T16:12:36.808Z,26.02
2023-05-21T16:15:03.762Z,26.17
2023-05-21T16:17:30.573Z,26.88
2023-05-21T16:19:57.480Z,26.81
2023-05-21T16:22:24.884Z,26.14
2023-05-21T16:24:51.784Z,26.35
2023-05-21T16:27:18.454Z,25.78
2023-05-21T16:29:45.388Z,25.87
2023-05-21T16:32:14.297Z,25.78
2023-05-21T16:34:41.345Z,25.92
2023-05-21T16:37:09.994Z,26.12
2023-05-21T16:39:37.217Z,26.26
2023-05-21T16:42:04.319Z,26.19
2023-05-21T16:44:32.220Z,26.07
2023-05-21T16:46:59.820Z,26.21
2023-05-21T16:49:27.446Z,26.11
2023-05-21T16:51:54.250Z,25.92
2023-05-21T16:54:21.225Z,26.44
2023-05-21T16:56:48.010Z,25.96
2023-05-21T16:59:14.856Z,25.63
2023-05-21T17:01:42.987Z,26.02
2023-05-21T17:04:09.923Z,25.77
2023-05-21T17:06:36.696Z,25.65
2023-05-21T17:09:03.969Z,25.32
2023-05-21T17:11:31.009Z,25.52
2023-05-21T17:13:57.849Z,25.54
2023-05-21T17:16:25.156Z,25.68
2023-05-21T17:18:52.237Z,25.39
2023-05-21T17:21:19.709Z,25.07
2023-05-21T17:23:46.698Z,24.95
2023-05-21T17:26:14.079Z,24.80
2023-05-21T17:28:40.921Z,24.75
2023-05-21T17:31:09.084Z,25.01
2023-05-21T17:33:37.452Z,24.68
2023-05-21T17:36:04.410Z,24.65
2023-05-21T17:38:31.232Z,24.76
2023-05-21T17:40:59.135Z,24.32
2023-05-21T17:43:28.830Z,24.36
2023-05-21T17:45:55.774Z,24.39
2023-05-21T17:48:22.613Z,24.34
2023-05-21T17:50:49.477Z,24.50
2023-05-21T17:53:16.692Z,24.54
2023-05-21T17:55:43.670Z,24.30
2023-05-21T17:58:10.582Z,24.11
2023-05-21T18:00:37.407Z,23.99
2023-05-21T18:03:04.654Z,24.02
2023-05-21T18:05:31.707Z,23.85
2023-05-21T18:08:00.054Z,23.75
2023-05-21T18:10:27.072Z,23.52
2023-05-21T18:12:53.845Z,23.58
2023-05-21T18:15:20.750Z,23.35
2023-05-21T18:17:47.973Z,23.22
2023-05-21T18:20:15.188Z,23.28
2023-05-21T18:22:42.014Z,23.20
2023-05-21T18:25:09.465Z,22.90
2023-05-21T18:27:36.377Z,22.86
2023-05-21T18:30:06.455Z,22.80
2023-05-21T18:32:33.932Z,22.77
2023-05-21T18:35:00.910Z,22.87
2023-05-21T18:37:27.758Z,22.81
2023-05-21T18:39:54.481Z,22.99
2023-05-21T18:42:21.211Z,22.88
2023-05-21T18:44:51.136Z,22.86
2023-05-21T18:47:18.075Z,22.91
2023-05-21T18:49:44.844Z,22.81
2023-05-21T18:52:11.615Z,22.76
2023-05-21T18:54:38.563Z,22.77
2023-05-21T18:57:05.511Z,22.68
2023-05-21T18:59:32.308Z,22.57
2023-05-21T19:01:59.103Z,22.49
2023-05-21T19:04:26.040Z,22.36
2023-05-21T19:06:52.773Z,22.29
2023-05-21T19:09:19.439Z,22.22
2023-05-21T19:11:46.257Z,22.20
2023-05-21T19:14:13.041Z,22.03
2023-05-21T19:16:40.008Z,21.82
2023-05-21T19:19:06.895Z,21.71
2023-05-21T19:21:33.965Z,21.57
2023-05-21T19:24:01.058Z,21.41
2023-05-21T19:26:28.205Z,21.30
2023-05-21T19:28:55.662Z,21.26
2023-05-21T19:31:23.346Z,21.17
2023-05-21T19:33:50.849Z,21.16
2023-05-21T19:36:18.653Z,20.98
2023-05-21T19:38:47.013Z,20.94
2023-05-21T19:41:17.815Z,20.86
2023-05-21T19:43:45.513Z,20.82
2023-05-21T19:46:12.706Z,20.80
2023-05-21T19:48:39.673Z,20.63
2023-05-21T19:51:06.557Z,20.62
2023-05-21T19:53:33.411Z,20.56
2023-05-21T19:56:00.344Z,20.54
2023-05-21T19:58:29.683Z,20.49
2023-05-21T20:00:58.577Z,20.45
2023-05-21T20:03:26.710Z,20.35
2023-05-21T20:05:53.810Z,20.36
2023-05-21T20:08:20.718Z,20.27
2023-05-21T20:10:50.333Z,20.25
2023-05-21T20:13:18.382Z,20.17
2023-05-21T20:15:45.092Z,20.09
2023-05-21T20:18:13.107Z,20.02
2023-05-21T20:20:41.586Z,19.94
2023-05-21T20:23:08.813Z,19.89
2023-05-21T20:25:35.638Z,19.85
2023-05-21T20:28:03.620Z,19.84
2023-05-21T20:30:35.085Z,19.75
2023-05-21T20:33:03.192Z,19.71
2023-05-21T20:35:30.591Z,19.65
2023-05-21T20:37:57.377Z,19.60
2023-05-21T20:40:24.149Z,19.56
2023-05-21T20:42:53.181Z,19.54
2023-05-21T20:45:21.179Z,19.48
2023-05-21T20:47:50.194Z,19.46
2023-05-21T20:50:18.022Z,19.36
2023-05-21T20:52:47.020Z,19.31
2023-05-21T20:55:14.913Z,19.28
2023-05-21T20:57:42.312Z,19.22
2023-05-21T21:00:12.019Z,19.19
2023-05-21T21:02:39.071Z,19.17
2023-05-21T21:05:06.454Z,19.10
2023-05-21T21:07:34.445Z,19.07
2023-05-21T21:10:01.646Z,19.06
2023-05-21T21:12:28.724Z,19.00
2023-05-21T21:14:56.051Z,18.97
2023-05-21T21:17:23.207Z,18.99
2023-05-21T21:19:50.196Z,18.96
2023-05-21T21:22:18.494Z,18.95
2023-05-21T21:24:45.883Z,18.87
2023-05-21T21:27:12.737Z,18.81
2023-05-21T21:29:39.470Z,18.75
2023-05-21T21:32:06.634Z,18.75
2023-05-21T21:34:33.403Z,18.75
2023-05-21T21:37:00.207Z,18.66
2023-05-21T21:39:27.114Z,18.66
2023-05-21T21:41:53.902Z,18.61
2023-05-21T21:44:20.793Z,18.59
2023-05-21T21:46:47.600Z,18.57
2023-05-21T21:49:17.439Z,18.56
2023-05-21T21:51:44.914Z,18.56
2023-05-21T21:54:11.916Z,18.51
2023-05-21T21:56:38.703Z,18.43
2023-05-21T21:59:05.493Z,18.47
2023-05-21T22:01:32.440Z,18.43
2023-05-21T22:03:59.400Z,18.38
2023-05-21T22:06:27.814Z,18.41
2023-05-21T22:08:55.193Z,18.38
2023-05-21T22:11:22.140Z,18.33
2023-05-21T22:13:49.188Z,18.30
2023-05-21T22:16:16.071Z,18.26
2023-05-21T22:18:42.963Z,18.28
2023-05-21T22:21:10.821Z,18.25
2023-05-21T22:23:38.682Z,18.23
2023-05-21T22:26:06.155Z,18.17
2023-05-21T22:28:33.109Z,18.12
2023-05-21T22:30:59.839Z,18.10
2023-05-21T22:33:27.017Z,18.11
2023-05-21T22:35:54.639Z,18.08
2023-05-21T22:38:21.678Z,18.05
2023-05-21T22:40:48.420Z,18.01
2023-05-21T22:43:15.235Z,18.00
2023-05-21T22:45:42.381Z,17.98
2023-05-21T22:48:09.717Z,17.95
2023-05-21T22:50:38.715Z,17.91
2023-05-21T22:53:06.435Z,17.84
2023-05-21T22:55:33.246Z,17.84
2023-05-21T22:58:00.058Z,17.84
2023-05-21T23:00:26.928Z,17.82
2023-05-21T23:02:54.826Z,17.78
2023-05-21T23:05:22.529Z,17.73
2023-05-21T23:07:49.760Z,17.67
2023-05-21T23:10:16.523Z,17.49
2023-05-21T23:12:43.369Z,17.44
2023-05-21T23:15:11.038Z,17.45
2023-05-21T23:17:38.314Z,17.36
2023-05-21T23:20:07.512Z,17.35
2023-05-21T23:22:35.675Z,17.38
2023-05-21T23:25:02.757Z,17.38
2023-05-21T23:27:29.791Z,17.40
2023-05-21T23:29:56.717Z,17.44
2023-05-21T23:32:23.807Z,17.46
2023-05-21T23:34:50.866Z,17.42
2023-05-21T23:37:17.910Z,17.34
2023-05-21T23:39:48.350Z,17.23
2023-05-21T23:42:18.789Z,17.28
2023-05-21T23:44:45.817Z,17.30
2023-05-21T23:47:12.503Z,17.31
2023-05-21T23:49:39.544Z,17.29
2023-05-21T23:52:06.925Z,17.28
2023-05-21T23:54:33.835Z,17.23
2023-05-21T23:57:01.074Z,17.26
2023-05-21T23:59:27.833Z,17.26
